Pagina principale
METAR-TAF:

METAR-TAF

Aeroporti :

Erbil, Iraq

latitudine: 36-14-15N, longitudine: 43-57-47E, altezza: 415 m

Osservazione

Il bollettino è stato emesso 1 ora e 10 minuti fa, alle 22:00 UTC
Vento 8 kt da ovest/nord-ovest
Temperature 23°C
Umidità 33%
Pressione 1012 hPa
Visibilità: 9000 m

METAR: ORER 292200Z 30008KT 9000 NSC 23/06 Q1012 NOSIG

Ora: 02:10 (23:10 UTC)

Previsione

Il bollettino è stato emesso 6 ore e 10 minuti fa, alle 17:00 UTC
Previsione valida dal 29 alle 18 UTC al 30 alle 18 UTC
Vento 10 kt da ovest
Visibilità: 8000 m

TAF: ORER 291700Z 2918/3018 27010KT 8000 NSC

Osservazioni e previsioni meteorologiche di più di 4000 aeroporti (messaggi METAR e TAF).

Le stazioni disponibili sono rappresentate dai dischi gialli e rossi sulla carta.

Puntare il mouse per vedere il nome della stazione.

Clicca sopra per visualizzare le osservazioni e previsioni meteorologiche.

Per cambiare la mappa : fare clic sui pulsanti verdi con una croce nera per ingrandire, il pulsante verde con un trattino per diminuire, o sulla freccia verde per le mappe adiacenti.


METAR-TAF: